Time;durP1;ratioP1;P1;durP2;ratioP2;P2;SDS_P1;SDS_P2;PMS_P1;PMS_P2;Temp;Humidity;BMP_temperature;BMP_pressure;BME280_temperature;BME280_humidity;BME280_pressure;Samples;Min_cycle;Max_cycle;Signal;HPM_P1;HPM_P2
2022/03/19 00:00:00;;;;;;;4.65;0.95;;;;;;;;;;4915121;29;20098;-73
2022/03/19 00:02:35;;;;;;;2.78;0.95;;;;;;;;;;4919467;29;20059;-74
2022/03/19 00:05:07;;;;;;;3.47;1.02;;;;;;;;;;4915397;29;20412;-68
2022/03/19 00:07:40;;;;;;;2.30;1.10;;;;;;;;;;4959929;28;20055;-67
2022/03/19 00:10:11;;;;;;;3.63;1.13;;;;;;;;;;4969626;28;20114;-67
2022/03/19 00:12:43;;;;;;;2.05;0.98;;;;;;;;;;4969654;28;20081;-67
2022/03/19 00:15:17;;;;;;;5.03;1.25;;;;;;;;;;4953885;28;20505;-67
2022/03/19 00:17:48;;;;;;;4.80;1.20;;;;;;;;;;4969782;28;20050;-66
2022/03/19 00:20:19;;;;;;;4.72;1.17;;;;;;;;;;4974960;28;20086;-67
2022/03/19 00:22:50;;;;;;;9.23;6.95;;;;;;;;;;4969715;28;20593;-67
2022/03/19 00:25:24;;;;;;;5.22;2.83;;;;;;;;;;4937023;28;20050;-66
2022/03/19 00:27:56;;;;;;;4.90;2.05;;;;;;;;;;4938152;28;20848;-67
2022/03/19 00:30:27;;;;;;;2.67;1.55;;;;;;;;;;4969867;28;20043;-66
2022/03/19 00:33:00;;;;;;;6.57;1.27;;;;;;;;;;4995267;28;20050;-66
2022/03/19 00:35:33;;;;;;;3.70;1.77;;;;;;;;;;5008648;28;20073;-69
2022/03/19 00:38:06;;;;;;;3.67;1.10;;;;;;;;;;4975990;28;20042;-70
2022/03/19 00:40:36;;;;;;;4.22;1.33;;;;;;;;;;5021705;28;20058;-68
2022/03/19 00:43:07;;;;;;;8.52;1.65;;;;;;;;;;5011601;28;20505;-68
2022/03/19 00:45:41;;;;;;;6.55;1.35;;;;;;;;;;5028140;28;20056;-69
2022/03/19 00:48:15;;;;;;;3.70;1.30;;;;;;;;;;5015459;28;20049;-69
2022/03/19 00:50:46;;;;;;;7.97;1.50;;;;;;;;;;5051810;28;20045;-69
2022/03/19 00:53:16;;;;;;;4.32;1.38;;;;;;;;;;5036021;28;20065;-71
2022/03/19 00:55:54;;;;;;;7.80;1.48;;;;;;;;;;5036619;28;20068;-73
2022/03/19 00:58:28;;;;;;;7.15;2.08;;;;;;;;;;5080542;28;20052;-70
2022/03/19 01:01:02;;;;;;;7.15;1.58;;;;;;;;;;5092182;28;20063;-70
2022/03/19 01:03:33;;;;;;;3.25;1.50;;;;;;;;;;5031609;28;20049;-70
2022/03/19 01:06:11;;;;;;;3.22;1.48;;;;;;;;;;5012002;28;20046;-70
2022/03/19 01:08:41;;;;;;;6.75;1.27;;;;;;;;;;4996289;28;20054;-72
2022/03/19 01:11:13;;;;;;;4.00;1.70;;;;;;;;;;5012222;28;20054;-71
2022/03/19 01:13:43;;;;;;;4.63;2.00;;;;;;;;;;5012136;28;20536;-71
2022/03/19 01:16:14;;;;;;;3.72;2.05;;;;;;;;;;4991946;28;20059;-70
2022/03/19 01:18:51;;;;;;;3.50;2.03;;;;;;;;;;4977097;28;20054;-71
2022/03/19 01:21:23;;;;;;;7.40;2.47;;;;;;;;;;4992257;28;20057;-72
2022/03/19 01:23:53;;;;;;;5.80;2.30;;;;;;;;;;4975985;28;20070;-69
2022/03/19 01:26:27;;;;;;;4.72;2.42;;;;;;;;;;4992354;28;20050;-68
2022/03/19 01:29:03;;;;;;;5.72;3.13;;;;;;;;;;4977816;28;20415;-69
2022/03/19 01:31:34;;;;;;;9.90;3.75;;;;;;;;;;4940697;28;20062;-67
2022/03/19 01:34:04;;;;;;;6.88;3.17;;;;;;;;;;4972693;28;20062;-69
2022/03/19 01:36:35;;;;;;;7.90;3.55;;;;;;;;;;4986573;28;20573;-70
2022/03/19 01:39:07;;;;;;;6.20;3.65;;;;;;;;;;4992132;28;20050;-71
2022/03/19 01:41:41;;;;;;;7.88;3.45;;;;;;;;;;5033259;28;20397;-75
2022/03/19 01:44:21;;;;;;;5.57;2.70;;;;;;;;;;5048380;28;20053;-73
2022/03/19 01:47:06;;;;;;;5.50;2.55;;;;;;;;;;5037799;28;20061;-72
2022/03/19 01:49:41;;;;;;;5.03;2.85;;;;;;;;;;5055086;28;20053;-70
2022/03/19 01:52:13;;;;;;;7.88;3.00;;;;;;;;;;5021657;28;20052;-70
2022/03/19 01:54:47;;;;;;;6.22;3.15;;;;;;;;;;5090120;28;20071;-70
2022/03/19 01:57:23;;;;;;;7.43;3.00;;;;;;;;;;5093499;28;20052;-70
2022/03/19 01:59:56;;;;;;;6.88;3.13;;;;;;;;;;5093014;28;20036;-69
2022/03/19 02:02:31;;;;;;;5.70;2.63;;;;;;;;;;5093745;28;20040;-71
2022/03/19 02:05:03;;;;;;;6.70;2.97;;;;;;;;;;5093219;28;20412;-72
2022/03/19 02:07:35;;;;;;;8.50;2.83;;;;;;;;;;5070513;28;20045;-70
2022/03/19 02:10:07;;;;;;;5.90;3.40;;;;;;;;;;5037550;28;20052;-68
2022/03/19 02:12:39;;;;;;;4.75;2.72;;;;;;;;;;4999258;28;20060;-67
2022/03/19 02:15:16;;;;;;;4.50;2.65;;;;;;;;;;5030543;28;20061;-67
2022/03/19 02:17:51;;;;;;;5.78;2.55;;;;;;;;;;4997523;28;20406;-67
2022/03/19 02:20:24;;;;;;;8.00;2.92;;;;;;;;;;5030316;28;20064;-68
2022/03/19 02:25:49;;;;;;;5.97;2.80;;;;;;;;;;5030439;28;20057;-68
2022/03/19 02:28:20;;;;;;;6.53;2.63;;;;;;;;;;5010322;28;20065;-68
2022/03/19 02:30:50;;;;;;;7.60;2.70;;;;;;;;;;4978072;28;20058;-68
2022/03/19 02:33:24;;;;;;;6.72;2.65;;;;;;;;;;4977839;28;20050;-67
2022/03/19 02:35:56;;;;;;;8.50;2.97;;;;;;;;;;4943700;28;20057;-68
2022/03/19 02:38:29;;;;;;;6.15;2.72;;;;;;;;;;4990857;28;20058;-71
2022/03/19 02:41:02;;;;;;;7.22;3.03;;;;;;;;;;4942518;28;20054;-71
2022/03/19 02:43:36;;;;;;;6.78;2.92;;;;;;;;;;4990742;28;20058;-68
2022/03/19 02:46:06;;;;;;;5.65;3.10;;;;;;;;;;5007700;28;20480;-67
2022/03/19 02:48:39;;;;;;;6.07;3.03;;;;;;;;;;5010145;28;20510;-67
2022/03/19 02:51:12;;;;;;;6.20;3.25;;;;;;;;;;5027417;28;20057;-67
2022/03/19 02:53:43;;;;;;;6.65;3.38;;;;;;;;;;5029745;28;20057;-66
2022/03/19 02:56:15;;;;;;;6.03;3.20;;;;;;;;;;5046269;28;20064;-67
2022/03/19 02:58:47;;;;;;;6.55;3.13;;;;;;;;;;5016340;28;20045;-67
2022/03/19 03:01:18;;;;;;;5.82;3.17;;;;;;;;;;4984376;28;20084;-68
2022/03/19 03:03:51;;;;;;;6.65;3.65;;;;;;;;;;5000598;28;20061;-70
2022/03/19 03:06:22;;;;;;;7.60;3.92;;;;;;;;;;5029505;28;20053;-68
2022/03/19 03:08:56;;;;;;;7.13;3.45;;;;;;;;;;5037170;28;20111;-69
2022/03/19 03:11:26;;;;;;;9.75;3.45;;;;;;;;;;5019115;28;20060;-70
2022/03/19 03:14:01;;;;;;;6.80;3.28;;;;;;;;;;5061146;28;20063;-69
2022/03/19 03:16:33;;;;;;;8.20;3.50;;;;;;;;;;5069224;28;20052;-71
2022/03/19 03:19:08;;;;;;;7.90;4.13;;;;;;;;;;5009589;28;20054;-74
2022/03/19 03:21:40;;;;;;;7.60;3.38;;;;;;;;;;5009817;28;20058;-73
2022/03/19 03:24:12;;;;;;;9.70;3.22;;;;;;;;;;4961108;28;20057;-72
2022/03/19 03:26:44;;;;;;;8.88;3.70;;;;;;;;;;4978181;28;20054;-72
2022/03/19 03:29:16;;;;;;;10.80;3.25;;;;;;;;;;4993987;28;20050;-71
2022/03/19 03:31:46;;;;;;;13.75;3.88;;;;;;;;;;4970221;28;20055;-72
2022/03/19 03:34:21;;;;;;;6.03;2.40;;;;;;;;;;4970559;28;20066;-67
2022/03/19 03:36:53;;;;;;;10.65;3.10;;;;;;;;;;4970609;28;20065;-68
2022/03/19 03:39:27;;;;;;;7.47;2.80;;;;;;;;;;4969986;28;20050;-70
2022/03/19 03:41:57;;;;;;;7.40;2.53;;;;;;;;;;4966361;28;20047;-72
2022/03/19 03:44:30;;;;;;;7.55;2.53;;;;;;;;;;4950950;29;20059;-70
2022/03/19 03:47:05;;;;;;;7.47;2.20;;;;;;;;;;4939685;28;20047;-70
2022/03/19 03:49:39;;;;;;;9.30;2.08;;;;;;;;;;4970195;28;20070;-69
2022/03/19 03:52:12;;;;;;;7.07;2.25;;;;;;;;;;4970085;28;20069;-69
2022/03/19 03:54:45;;;;;;;5.88;2.08;;;;;;;;;;4970050;28;20066;-70
2022/03/19 03:57:19;;;;;;;8.77;2.05;;;;;;;;;;4984346;28;20050;-70
2022/03/19 03:59:54;;;;;;;4.38;1.70;;;;;;;;;;4989378;28;20067;-68
2022/03/19 04:02:25;;;;;;;3.63;1.40;;;;;;;;;;4989320;28;20057;-70
2022/03/19 04:04:56;;;;;;;5.68;1.60;;;;;;;;;;4989149;28;20061;-68
2022/03/19 04:07:27;;;;;;;5.05;1.25;;;;;;;;;;4973573;28;20542;-67
2022/03/19 04:10:04;;;;;;;5.25;1.38;;;;;;;;;;4969599;28;20058;-66
2022/03/19 04:12:36;;;;;;;3.67;1.30;;;;;;;;;;4969650;28;20435;-67
2022/03/19 04:15:09;;;;;;;2.42;1.17;;;;;;;;;;4969790;28;20062;-69
2022/03/19 04:17:41;;;;;;;3.65;1.50;;;;;;;;;;4967670;28;20085;-71
2022/03/19 04:20:15;;;;;;;4.65;1.98;;;;;;;;;;4961968;28;20054;-70
2022/03/19 04:22:47;;;;;;;9.40;2.17;;;;;;;;;;4988942;28;20058;-69
2022/03/19 04:25:22;;;;;;;2.97;1.52;;;;;;;;;;5003825;28;20061;-67
2022/03/19 04:27:57;;;;;;;3.25;1.33;;;;;;;;;;5008404;28;20058;-66
2022/03/19 04:30:31;;;;;;;3.15;1.30;;;;;;;;;;4992139;28;20054;-66
2022/03/19 04:33:04;;;;;;;2.47;1.10;;;;;;;;;;4988817;28;20066;-66
2022/03/19 04:38:28;;;;;;;4.50;1.05;;;;;;;;;;4988985;28;20057;-66
2022/03/19 04:41:03;;;;;;;2.25;0.98;;;;;;;;;;4918706;29;20054;-66
2022/03/19 04:43:33;;;;;;;2.50;1.20;;;;;;;;;;4911551;29;20390;-66
2022/03/19 04:46:06;;;;;;;5.32;1.25;;;;;;;;;;4911740;29;20048;-66
2022/03/19 04:48:38;;;;;;;4.97;1.00;;;;;;;;;;4912004;29;20056;-66
2022/03/19 04:51:10;;;;;;;3.15;0.95;;;;;;;;;;4896770;29;20064;-67
2022/03/19 04:53:42;;;;;;;2.70;1.05;;;;;;;;;;4896502;29;20067;-71
2022/03/19 04:56:15;;;;;;;4.78;1.15;;;;;;;;;;4882230;29;20059;-71
2022/03/19 04:58:53;;;;;;;7.82;1.58;;;;;;;;;;4911932;29;20493;-68
2022/03/19 05:01:28;;;;;;;2.22;1.20;;;;;;;;;;4911951;29;20444;-72
2022/03/19 05:04:02;;;;;;;2.75;1.27;;;;;;;;;;4892788;29;20048;-70
2022/03/19 05:06:33;;;;;;;4.25;1.20;;;;;;;;;;4892845;29;20569;-68
2022/03/19 05:11:55;;;;;;;2.33;1.25;;;;;;;;;;4911482;29;20097;-69
2022/03/19 05:14:25;;;;;;;6.75;1.15;;;;;;;;;;4911698;29;20052;-69
2022/03/19 05:16:57;;;;;;;;;;;;;;;;;;4950475;29;20070;-68
2022/03/19 05:19:28;;;;;;;3.95;1.50;;;;;;;;;;4965746;28;19929;-67
2022/03/19 05:22:00;;;;;;;13.23;1.63;;;;;;;;;;5017847;28;20056;-67
2022/03/19 05:24:30;;;;;;;2.83;1.02;;;;;;;;;;5027836;28;20058;-66
2022/03/19 05:27:11;;;;;;;9.68;2.17;;;;;;;;;;5027380;28;20446;-66
2022/03/19 05:29:41;;;;;;;3.40;0.98;;;;;;;;;;5007710;28;20050;-66
2022/03/19 05:32:13;;;;;;;6.03;1.30;;;;;;;;;;4975413;28;20057;-66
2022/03/19 05:34:43;;;;;;;8.63;1.50;;;;;;;;;;5009952;28;20054;-66
2022/03/19 05:37:14;;;;;;;2.72;1.42;;;;;;;;;;5011401;28;20062;-66
2022/03/19 05:39:45;;;;;;;7.80;1.45;;;;;;;;;;5011638;28;20060;-66
2022/03/19 05:42:15;;;;;;;2.15;1.40;;;;;;;;;;4959006;28;20448;-66
2022/03/19 05:44:46;;;;;;;6.50;1.48;;;;;;;;;;4991855;28;20058;-66
2022/03/19 05:47:17;;;;;;;3.83;1.35;;;;;;;;;;4991655;28;20055;-66
2022/03/19 05:49:53;;;;;;;5.70;1.27;;;;;;;;;;4964275;28;20065;-66
2022/03/19 05:52:26;;;;;;;4.07;1.23;;;;;;;;;;5011228;28;20533;-66
2022/03/19 05:54:57;;;;;;;6.03;1.40;;;;;;;;;;5010842;28;20049;-66
2022/03/19 05:57:28;;;;;;;10.13;1.52;;;;;;;;;;4994872;28;20045;-66
2022/03/19 06:00:01;;;;;;;6.88;1.50;;;;;;;;;;4995436;28;20064;-66
2022/03/19 06:02:42;;;;;;;2.30;1.13;;;;;;;;;;5011262;28;20422;-66
2022/03/19 06:05:18;;;;;;;;;;;;;;;;;;4930878;29;20048;-66
2022/03/19 06:07:49;;;;;;;5.53;1.23;;;;;;;;;;4949639;29;19976;-66
2022/03/19 06:10:22;;;;;;;5.95;1.25;;;;;;;;;;4918161;29;20064;-66
2022/03/19 06:12:53;;;;;;;4.82;1.67;;;;;;;;;;4933662;29;20059;-66
2022/03/19 06:15:23;;;;;;;4.57;1.40;;;;;;;;;;4947626;29;20059;-66
2022/03/19 06:17:57;;;;;;;2.65;1.33;;;;;;;;;;4952874;29;20059;-66
2022/03/19 06:20:27;;;;;;;2.78;1.50;;;;;;;;;;4966688;28;20058;-67
2022/03/19 06:22:58;;;;;;;4.32;1.42;;;;;;;;;;4972074;28;20661;-66
2022/03/19 06:25:31;;;;;;;5.90;1.40;;;;;;;;;;4952255;29;20055;-66
2022/03/19 06:28:03;;;;;;;4.03;1.60;;;;;;;;;;4914167;29;20052;-66
2022/03/19 06:30:37;;;;;;;5.35;1.50;;;;;;;;;;4914205;29;20060;-66
2022/03/19 06:33:12;;;;;;;;;;;;;;;;;;4900516;29;20061;-66
2022/03/19 06:38:39;;;;;;;7.00;1.40;;;;;;;;;;4952318;29;20059;-66
2022/03/19 06:41:11;;;;;;;6.50;1.58;;;;;;;;;;4952171;29;20431;-66
2022/03/19 06:43:43;;;;;;;4.45;1.30;;;;;;;;;;5002824;28;20077;-66
2022/03/19 06:46:13;;;;;;;3.70;1.45;;;;;;;;;;4961630;28;20058;-66
2022/03/19 06:48:46;;;;;;;9.15;1.48;;;;;;;;;;5010389;28;20050;-66
2022/03/19 06:51:18;;;;;;;6.63;1.65;;;;;;;;;;5010170;28;20503;-66
2022/03/19 06:53:49;;;;;;;6.28;1.73;;;;;;;;;;4958058;28;20054;-66
2022/03/19 06:56:23;;;;;;;3.97;1.80;;;;;;;;;;4990463;28;20065;-66
2022/03/19 06:58:58;;;;;;;3.38;1.90;;;;;;;;;;5000265;28;20049;-66
2022/03/19 07:01:28;;;;;;;3.05;1.38;;;;;;;;;;5049531;28;20531;-66
2022/03/19 07:03:59;;;;;;;8.60;1.85;;;;;;;;;;5043394;28;20060;-66
2022/03/19 07:06:30;;;;;;;4.78;1.60;;;;;;;;;;5049889;28;20056;-66
2022/03/19 07:09:21;;;;;;;11.05;2.00;;;;;;;;;;5022541;28;20061;-66
2022/03/19 07:11:51;;;;;;;4.05;1.70;;;;;;;;;;5049639;28;20052;-66
2022/03/19 07:14:23;;;;;;;5.88;1.88;;;;;;;;;;5016096;28;20452;-66
2022/03/19 07:16:57;;;;;;;10.23;1.88;;;;;;;;;;5049389;28;20052;-66
2022/03/19 07:19:31;;;;;;;4.43;1.98;;;;;;;;;;5049390;28;20053;-66
2022/03/19 07:22:02;;;;;;;5.55;1.80;;;;;;;;;;5017053;28;20390;-66
2022/03/19 07:24:35;;;;;;;3.25;1.50;;;;;;;;;;5056419;28;20056;-66
2022/03/19 07:27:06;;;;;;;5.78;2.38;;;;;;;;;;5052960;28;20052;-66
2022/03/19 07:29:37;;;;;;;3.70;1.90;;;;;;;;;;5068999;28;20052;-66
2022/03/19 07:32:10;;;;;;;3.22;1.58;;;;;;;;;;5069221;28;20514;-67
2022/03/19 07:34:42;;;;;;;3.38;1.58;;;;;;;;;;5053039;28;20083;-66
2022/03/19 07:37:14;;;;;;;4.55;1.67;;;;;;;;;;5029041;28;20053;-66
2022/03/19 07:39:45;;;;;;;4.75;1.77;;;;;;;;;;5028962;28;20665;-66
2022/03/19 07:42:18;;;;;;;4.75;1.73;;;;;;;;;;5028798;28;20045;-66
2022/03/19 07:44:52;;;;;;;7.20;2.10;;;;;;;;;;5029064;28;20520;-66
2022/03/19 07:47:23;;;;;;;6.90;2.05;;;;;;;;;;5028793;28;20560;-66
2022/03/19 07:49:55;;;;;;;9.82;2.35;;;;;;;;;;5012155;28;20054;-66
2022/03/19 07:52:27;;;;;;;9.38;1.85;;;;;;;;;;5028782;28;20049;-66
2022/03/19 07:54:58;;;;;;;3.72;1.88;;;;;;;;;;4995892;28;20058;-66
2022/03/19 07:57:28;;;;;;;12.50;2.28;;;;;;;;;;5010785;28;20199;-66
2022/03/19 08:00:04;;;;;;;5.20;1.90;;;;;;;;;;4995669;28;20497;-66
2022/03/19 08:02:43;;;;;;;5.65;1.90;;;;;;;;;;5014332;28;20057;-66
2022/03/19 08:05:15;;;;;;;8.68;1.83;;;;;;;;;;5028900;28;20057;-66
2022/03/19 08:07:45;;;;;;;8.35;2.03;;;;;;;;;;4995532;28;20429;-66
2022/03/19 08:10:19;;;;;;;3.70;1.90;;;;;;;;;;5028331;28;20062;-66
2022/03/19 08:12:50;;;;;;;8.13;2.15;;;;;;;;;;5028495;28;20053;-67
2022/03/19 08:15:25;;;;;;;8.10;2.00;;;;;;;;;;4995762;28;20103;-66
2022/03/19 08:17:57;;;;;;;5.07;2.08;;;;;;;;;;5043226;28;20057;-66
2022/03/19 08:20:31;;;;;;;4.80;1.83;;;;;;;;;;5042441;28;20431;-66
2022/03/19 08:23:02;;;;;;;6.28;2.25;;;;;;;;;;5048531;28;20049;-66
2022/03/19 08:25:34;;;;;;;8.02;2.28;;;;;;;;;;5048350;28;20053;-66
2022/03/19 08:28:05;;;;;;;5.32;2.03;;;;;;;;;;5048497;28;20177;-66
2022/03/19 08:30:37;;;;;;;7.22;2.33;;;;;;;;;;5046246;28;20424;-66
2022/03/19 08:33:08;;;;;;;7.80;2.33;;;;;;;;;;5068518;28;20056;-66
2022/03/19 08:35:38;;;;;;;6.15;1.83;;;;;;;;;;5028172;28;20049;-66
2022/03/19 08:41:08;;;;;;;9.57;2.22;;;;;;;;;;5008413;28;20205;-66
2022/03/19 08:43:38;;;;;;;3.55;1.90;;;;;;;;;;5008664;28;20065;-66
2022/03/19 08:46:08;;;;;;;7.10;1.90;;;;;;;;;;4969418;28;20063;-66
2022/03/19 08:48:40;;;;;;;10.45;1.83;;;;;;;;;;4969332;28;20495;-66
2022/03/19 08:54:03;;;;;;;5.95;1.95;;;;;;;;;;4880495;29;20123;-66
2022/03/19 08:56:36;;;;;;;3.30;1.80;;;;;;;;;;4912166;29;20060;-66
2022/03/19 08:59:09;;;;;;;4.53;2.45;;;;;;;;;;4932365;28;20054;-66
2022/03/19 09:01:41;;;;;;;6.38;2.00;;;;;;;;;;4950125;28;20056;-66
2022/03/19 09:04:12;;;;;;;4.57;1.90;;;;;;;;;;4950192;28;20071;-66
2022/03/19 09:06:43;;;;;;;4.60;2.10;;;;;;;;;;4949965;28;20488;-66
2022/03/19 09:09:16;;;;;;;4.72;1.95;;;;;;;;;;4951102;28;20066;-66
2022/03/19 09:11:51;;;;;;;9.25;2.15;;;;;;;;;;4892105;28;20072;-66
2022/03/19 09:14:22;;;;;;;8.82;2.30;;;;;;;;;;4953706;28;20055;-66
2022/03/19 09:16:52;;;;;;;6.85;2.00;;;;;;;;;;5008070;28;20634;-66
2022/03/19 09:19:27;;;;;;;7.55;2.20;;;;;;;;;;5012228;28;20064;-66
2022/03/19 09:22:00;;;;;;;4.75;2.30;;;;;;;;;;5031541;28;20052;-66
2022/03/19 09:24:30;;;;;;;8.70;2.30;;;;;;;;;;5089624;28;20057;-66
2022/03/19 09:26:59;;;;;;;7.25;2.58;;;;;;;;;;5094226;28;20048;-66
2022/03/19 09:29:30;;;;;;;5.47;2.13;;;;;;;;;;5031447;28;20057;-66
2022/03/19 09:32:02;;;;;;;5.10;2.85;;;;;;;;;;5031734;28;20080;-66
2022/03/19 09:34:33;;;;;;;5.70;2.65;;;;;;;;;;5015003;28;20052;-66
2022/03/19 09:37:08;;;;;;;8.00;2.58;;;;;;;;;;5031493;28;20041;-66
2022/03/19 09:39:40;;;;;;;6.53;2.45;;;;;;;;;;5031658;28;20549;-66
2022/03/19 09:42:13;;;;;;;9.65;2.65;;;;;;;;;;5031376;28;20555;-66
2022/03/19 09:44:44;;;;;;;11.65;2.53;;;;;;;;;;5015079;28;20069;-66
2022/03/19 09:47:17;;;;;;;9.77;2.28;;;;;;;;;;4991640;28;20046;-66
2022/03/19 09:49:49;;;;;;;11.65;2.92;;;;;;;;;;4959478;28;20521;-66
2022/03/19 09:52:29;;;;;;;13.68;2.90;;;;;;;;;;4991884;28;20062;-66
2022/03/19 09:55:00;;;;;;;7.50;2.35;;;;;;;;;;4975463;28;20054;-66
2022/03/19 09:57:33;;;;;;;12.27;2.60;;;;;;;;;;4943818;28;20054;-66
2022/03/19 10:00:05;;;;;;;12.32;2.45;;;;;;;;;;5008431;28;20080;-66
2022/03/19 10:02:55;;;;;;;8.45;2.65;;;;;;;;;;5051068;28;20053;-66
2022/03/19 10:08:41;;;;;;;7.15;3.25;;;;;;;;;;5050810;28;20049;-66
2022/03/19 10:11:16;;;;;;;4.45;2.45;;;;;;;;;;5010689;28;20088;-66
2022/03/19 10:13:52;;;;;;;7.03;2.20;;;;;;;;;;5011111;28;20065;-66
2022/03/19 10:16:25;;;;;;;5.30;2.40;;;;;;;;;;5010999;28;20062;-66
2022/03/19 10:19:03;;;;;;;7.82;1.95;;;;;;;;;;5011257;28;20069;-66
2022/03/19 10:21:40;;;;;;;3.42;1.98;;;;;;;;;;5010024;28;20106;-67
2022/03/19 10:24:29;;;;;;;5.10;2.40;;;;;;;;;;4983292;28;20049;-66
2022/03/19 10:27:03;;;;;;;4.07;1.88;;;;;;;;;;4982759;28;20064;-66
2022/03/19 10:29:35;;;;;;;5.68;2.20;;;;;;;;;;5030590;28;20064;-67
2022/03/19 10:32:07;;;;;;;;;;;;;;;;;;5031110;28;20042;-66
2022/03/19 10:34:44;;;;;;;4.50;1.95;;;;;;;;;;4998927;28;19921;-66
2022/03/19 10:37:35;;;;;;;31.50;3.00;;;;;;;;;;5030496;28;20049;-66
2022/03/19 10:40:07;;;;;;;11.73;1.90;;;;;;;;;;5030099;28;20156;-66
2022/03/19 10:42:41;;;;;;;19.83;2.20;;;;;;;;;;5030198;28;20061;-66
2022/03/19 10:45:23;;;;;;;3.53;1.92;;;;;;;;;;5030283;28;20050;-66
2022/03/19 10:47:53;;;;;;;5.43;2.50;;;;;;;;;;4959856;28;20051;-66
2022/03/19 10:50:25;;;;;;;6.22;3.03;;;;;;;;;;4990362;28;20062;-66
2022/03/19 10:52:58;;;;;;;10.40;3.33;;;;;;;;;;4990792;28;20645;-66
2022/03/19 10:55:30;;;;;;;7.22;2.90;;;;;;;;;;4975041;28;20058;-66
2022/03/19 10:58:01;;;;;;;11.68;3.28;;;;;;;;;;4951343;29;20062;-66
2022/03/19 11:00:41;;;;;;;7.78;2.72;;;;;;;;;;4937974;28;20062;-66
2022/03/19 11:03:21;;;;;;;9.57;2.78;;;;;;;;;;4955296;28;20055;-66
2022/03/19 11:06:06;;;;;;;5.15;2.70;;;;;;;;;;4970631;28;20448;-66
2022/03/19 11:08:48;;;;;;;7.03;2.80;;;;;;;;;;4970780;28;20058;-66
2022/03/19 11:11:32;;;;;;;17.75;3.10;;;;;;;;;;4970851;28;20467;-65
2022/03/19 11:14:05;;;;;;;9.75;3.80;;;;;;;;;;4970811;28;20141;-66
2022/03/19 11:16:39;;;;;;;11.15;4.80;;;;;;;;;;4923521;28;20054;-66
2022/03/19 11:19:10;;;;;;;11.15;4.10;;;;;;;;;;4931967;29;20564;-66
2022/03/19 11:21:42;;;;;;;11.15;5.00;;;;;;;;;;4932363;29;20771;-66
2022/03/19 11:24:24;;;;;;;20.10;7.53;;;;;;;;;;4932350;29;20067;-66
2022/03/19 11:26:59;;;;;;;25.45;8.38;;;;;;;;;;4935318;28;20048;-66
2022/03/19 11:29:33;;;;;;;30.63;8.85;;;;;;;;;;4990034;28;20069;-66
2022/03/19 11:32:06;;;;;;;37.17;10.25;;;;;;;;;;4989187;28;20117;-66
2022/03/19 11:34:47;;;;;;;37.30;9.55;;;;;;;;;;4976146;28;20641;-66
2022/03/19 11:37:21;;;;;;;39.28;9.85;;;;;;;;;;5029324;28;20153;-66
2022/03/19 11:40:13;;;;;;;39.95;10.73;;;;;;;;;;5012552;28;20053;-66
2022/03/19 11:43:07;;;;;;;44.50;12.52;;;;;;;;;;5034581;28;20056;-66
2022/03/19 11:46:02;;;;;;;38.38;10.43;;;;;;;;;;5048723;28;20045;-66
2022/03/19 11:48:36;;;;;;;33.67;10.25;;;;;;;;;;5049202;28;20049;-66
2022/03/19 11:51:24;;;;;;;34.83;10.05;;;;;;;;;;5048768;28;20049;-66
2022/03/19 11:53:55;;;;;;;37.35;9.55;;;;;;;;;;5028609;28;20068;-67
2022/03/19 11:56:51;;;;;;;36.58;10.02;;;;;;;;;;5015418;28;20064;-67
2022/03/19 11:59:27;;;;;;;33.10;9.50;;;;;;;;;;4957067;28;20050;-66
2022/03/19 12:02:00;;;;;;;24.70;8.77;;;;;;;;;;4969559;28;20047;-66
2022/03/19 12:04:52;;;;;;;20.23;7.40;;;;;;;;;;4965794;28;20051;-66
2022/03/19 12:08:04;;;;;;;14.15;5.70;;;;;;;;;;4950724;29;20051;-66
2022/03/19 12:10:50;;;;;;;11.88;4.65;;;;;;;;;;4893656;29;20064;-66
2022/03/19 12:13:29;;;;;;;9.27;4.78;;;;;;;;;;4889954;29;20482;-67
2022/03/19 12:16:08;;;;;;;8.65;4.70;;;;;;;;;;4874725;29;20071;-67
2022/03/19 12:18:46;;;;;;;10.05;4.63;;;;;;;;;;4874628;29;20422;-66
2022/03/19 12:21:22;;;;;;;13.48;4.03;;;;;;;;;;4889466;29;20537;-66
2022/03/19 12:24:10;;;;;;;22.30;9.95;;;;;;;;;;4904967;29;20070;-67
2022/03/19 12:26:44;;;;;;;10.20;5.50;;;;;;;;;;4874583;29;20087;-67
2022/03/19 12:29:20;;;;;;;7.60;4.60;;;;;;;;;;4855326;29;20191;-67
2022/03/19 12:31:54;;;;;;;15.20;7.95;;;;;;;;;;4844440;29;20062;-66
2022/03/19 12:34:29;;;;;;;16.15;4.88;;;;;;;;;;4849603;29;20065;-67
2022/03/19 12:37:03;;;;;;;9.98;5.45;;;;;;;;;;4855967;29;20129;-66
2022/03/19 12:39:34;;;;;;;8.93;5.25;;;;;;;;;;4888871;29;20057;-67
2022/03/19 12:42:06;;;;;;;10.50;4.88;;;;;;;;;;4902269;29;20056;-67
2022/03/19 12:44:38;;;;;;;7.85;4.57;;;;;;;;;;4955163;28;20050;-68
2022/03/19 12:47:09;;;;;;;6.22;3.80;;;;;;;;;;4992655;28;20054;-67
2022/03/19 12:49:51;;;;;;;6.00;3.40;;;;;;;;;;4960057;28;20110;-66
2022/03/19 12:52:26;;;;;;;7.28;4.28;;;;;;;;;;4992744;28;20057;-66
2022/03/19 12:54:58;;;;;;;7.30;4.28;;;;;;;;;;4976893;28;20046;-67
2022/03/19 12:57:33;;;;;;;10.25;3.95;;;;;;;;;;4953935;28;20503;-68
2022/03/19 13:00:06;;;;;;;8.07;4.18;;;;;;;;;;5010380;28;20061;-67
2022/03/19 13:02:49;;;;;;;8.35;5.18;;;;;;;;;;5012430;28;20425;-67
2022/03/19 13:05:20;;;;;;;8.07;4.53;;;;;;;;;;5001594;28;20049;-67
2022/03/19 13:08:11;;;;;;;13.73;9.95;;;;;;;;;;4977711;28;20046;-67
2022/03/19 13:10:42;;;;;;;;;;;;;;;;;;5032353;28;20570;-67
2022/03/19 13:13:18;;;;;;;8.70;5.90;;;;;;;;;;5031576;28;19921;-67
2022/03/19 13:15:53;;;;;;;9.02;4.78;;;;;;;;;;4992292;28;20054;-67
2022/03/19 13:18:35;;;;;;;9.32;6.10;;;;;;;;;;4992022;28;20061;-67
2022/03/19 13:21:12;;;;;;;7.88;4.10;;;;;;;;;;4991948;28;20081;-68
2022/03/19 13:23:47;;;;;;;9.07;5.95;;;;;;;;;;4992374;28;20049;-67
2022/03/19 13:26:18;;;;;;;8.98;5.85;;;;;;;;;;4953431;29;20047;-66
2022/03/19 13:29:17;;;;;;;11.15;6.80;;;;;;;;;;4953451;29;20059;-67
2022/03/19 13:31:47;;;;;;;22.90;15.90;;;;;;;;;;4952774;28;20063;-66
2022/03/19 13:34:27;;;;;;;10.55;6.15;;;;;;;;;;4920512;29;20047;-67
2022/03/19 13:37:02;;;;;;;12.18;6.13;;;;;;;;;;4937696;29;20073;-66
2022/03/19 13:39:35;;;;;;;10.95;6.45;;;;;;;;;;4953769;29;20067;-66
2022/03/19 13:42:17;;;;;;;16.38;8.25;;;;;;;;;;4968987;28;20508;-66
2022/03/19 13:45:02;;;;;;;12.23;6.03;;;;;;;;;;4957471;28;20054;-66
2022/03/19 13:47:38;;;;;;;11.70;5.63;;;;;;;;;;4972613;28;20062;-68
2022/03/19 13:50:10;;;;;;;12.13;6.65;;;;;;;;;;4937438;29;20054;-68
2022/03/19 13:52:43;;;;;;;10.90;6.65;;;;;;;;;;4909165;28;20054;-68
2022/03/19 13:55:36;;;;;;;10.45;5.65;;;;;;;;;;4939023;28;20058;-68
2022/03/19 13:58:10;;;;;;;9.45;5.50;;;;;;;;;;4971906;28;20716;-68
2022/03/19 14:00:42;;;;;;;11.75;5.45;;;;;;;;;;4972178;28;20085;-69
2022/03/19 14:03:24;;;;;;;9.75;4.93;;;;;;;;;;4972400;28;20054;-67
2022/03/19 14:06:01;;;;;;;9.32;4.82;;;;;;;;;;5012796;28;20058;-67
2022/03/19 14:08:36;;;;;;;8.00;4.82;;;;;;;;;;4951780;28;20057;-68
2022/03/19 14:11:12;;;;;;;8.70;4.82;;;;;;;;;;5031081;28;20064;-68
2022/03/19 14:13:44;;;;;;;12.07;5.30;;;;;;;;;;4997966;28;20056;-68
2022/03/19 14:16:19;;;;;;;11.13;4.63;;;;;;;;;;5030956;28;20056;-69
2022/03/19 14:18:59;;;;;;;7.22;4.15;;;;;;;;;;4998237;28;20054;-69
2022/03/19 14:21:30;;;;;;;7.55;4.22;;;;;;;;;;5010584;28;20058;-69
2022/03/19 14:24:00;;;;;;;5.90;3.63;;;;;;;;;;4994137;28;20125;-68
2022/03/19 14:26:35;;;;;;;6.38;3.65;;;;;;;;;;5010798;28;20069;-68
2022/03/19 14:29:09;;;;;;;7.03;3.05;;;;;;;;;;4997545;28;20468;-69
2022/03/19 14:31:40;;;;;;;5.05;2.90;;;;;;;;;;5039085;28;20523;-68
2022/03/19 14:34:10;;;;;;;5.03;2.72;;;;;;;;;;5053942;28;20052;-69
2022/03/19 14:36:44;;;;;;;7.30;3.75;;;;;;;;;;5070563;28;20052;-69
2022/03/19 14:39:15;;;;;;;5.25;2.50;;;;;;;;;;5070428;28;20057;-69
2022/03/19 14:41:47;;;;;;;3.70;2.22;;;;;;;;;;5070374;28;20087;-68
2022/03/19 14:44:17;;;;;;;5.45;2.30;;;;;;;;;;5070495;28;20504;-68
2022/03/19 14:46:50;;;;;;;4.68;2.58;;;;;;;;;;5036818;28;20052;-68
2022/03/19 14:49:26;;;;;;;4.60;2.50;;;;;;;;;;5053987;28;20496;-69
2022/03/19 14:52:00;;;;;;;5.45;2.25;;;;;;;;;;5006166;28;20056;-69
2022/03/19 14:54:31;;;;;;;6.78;3.20;;;;;;;;;;5053142;28;20068;-68
2022/03/19 14:57:05;;;;;;;3.65;2.30;;;;;;;;;;5009933;28;20092;-67
2022/03/19 14:59:36;;;;;;;5.53;2.45;;;;;;;;;;4964922;28;20070;-69
2022/03/19 15:02:07;;;;;;;3.17;2.05;;;;;;;;;;4951555;29;20051;-69
2022/03/19 15:04:39;;;;;;;3.88;1.95;;;;;;;;;;4951770;29;20110;-70
2022/03/19 15:07:22;;;;;;;3.22;2.15;;;;;;;;;;4951763;28;20070;-68
2022/03/19 15:09:54;;;;;;;2.78;1.60;;;;;;;;;;4951995;29;20416;-69
2022/03/19 15:12:26;;;;;;;3.33;2.25;;;;;;;;;;4951584;28;20055;-67
2022/03/19 15:14:56;;;;;;;4.53;2.15;;;;;;;;;;4919948;29;20074;-67
2022/03/19 15:17:29;;;;;;;4.85;2.28;;;;;;;;;;4951290;29;20055;-67
2022/03/19 15:20:25;;;;;;;5.30;2.15;;;;;;;;;;4951630;28;20067;-67
2022/03/19 15:22:57;;;;;;;3.72;2.13;;;;;;;;;;4951501;28;20062;-68
2022/03/19 15:25:27;;;;;;;5.65;2.40;;;;;;;;;;4932076;29;20062;-67
2022/03/19 15:28:02;;;;;;;4.40;2.47;;;;;;;;;;4949194;28;20059;-68
2022/03/19 15:30:33;;;;;;;4.00;2.03;;;;;;;;;;4951329;28;20058;-67
2022/03/19 15:33:25;;;;;;;4.00;2.10;;;;;;;;;;4938691;28;20063;-68
2022/03/19 15:36:02;;;;;;;3.83;2.33;;;;;;;;;;4989844;28;20073;-67
2022/03/19 15:38:35;;;;;;;3.78;2.22;;;;;;;;;;4990022;28;20046;-67
2022/03/19 15:41:06;;;;;;;4.70;2.38;;;;;;;;;;4927809;28;20058;-68